createdAt,value
2019-03-06T00:04:32.610Z,5.30
2019-03-06T00:14:36.403Z,5.30
2019-03-06T00:24:40.178Z,5.30
2019-03-06T00:34:44.078Z,5.30
2019-03-06T00:44:49.085Z,5.30
2019-03-06T00:54:53.130Z,5.30
2019-03-06T01:04:57.651Z,5.30
2019-03-06T01:15:02.240Z,5.20
2019-03-06T01:25:07.040Z,5.30
2019-03-06T01:35:29.736Z,5.20
2019-03-06T01:45:33.908Z,5.20
2019-03-06T01:55:38.263Z,5.20
2019-03-06T02:05:42.500Z,5.20
2019-03-06T02:15:46.967Z,5.20
2019-03-06T02:25:51.224Z,5.20
2019-03-06T02:35:55.729Z,5.30
2019-03-06T02:45:59.920Z,5.30
2019-03-06T02:56:03.782Z,5.40
2019-03-06T03:06:13.439Z,5.60
2019-03-06T03:16:17.243Z,5.70
2019-03-06T03:26:21.339Z,5.70
2019-03-06T03:36:25.568Z,5.60
2019-03-06T03:46:30.175Z,5.50
2019-03-06T03:56:34.349Z,5.50
2019-03-06T04:06:38.583Z,5.40
2019-03-06T04:16:42.851Z,5.30
2019-03-06T04:26:46.711Z,5.40
2019-03-06T04:36:50.515Z,5.40
2019-03-06T04:46:54.675Z,5.40
2019-03-06T04:56:58.453Z,5.50
2019-03-06T05:07:02.891Z,5.50
2019-03-06T05:17:35.305Z,5.50
2019-03-06T05:27:39.864Z,5.50
2019-03-06T05:37:56.290Z,5.50
2019-03-06T05:48:00.166Z,5.50
2019-03-06T05:58:04.403Z,5.60
2019-03-06T06:08:08.483Z,5.50
2019-03-06T06:18:12.947Z,5.50
2019-03-06T06:28:17.161Z,5.50
2019-03-06T06:38:21.586Z,5.60
2019-03-06T06:48:26.372Z,5.80
2019-03-06T06:58:54.491Z,5.80
2019-03-06T07:09:23.778Z,5.90
2019-03-06T07:19:46.958Z,6.00
2019-03-06T07:30:00.466Z,6.00
2019-03-06T07:40:14.961Z,6.20
2019-03-06T07:50:31.569Z,6.40
2019-03-06T08:00:35.856Z,6.40
2019-03-06T08:10:40.922Z,6.60
2019-03-06T08:21:07.251Z,6.70
2019-03-06T08:31:17.342Z,6.70
2019-03-06T08:41:21.674Z,6.80
2019-03-06T08:51:44.243Z,7.00
2019-03-06T09:02:23.367Z,7.20
2019-03-06T09:12:43.282Z,7.50
2019-03-06T09:22:55.435Z,7.80
2019-03-06T09:33:23.778Z,8.10
2019-03-06T09:43:34.475Z,8.30
2019-03-06T09:53:56.182Z,8.30
2019-03-06T10:04:10.314Z,8.50
2019-03-06T10:14:20.171Z,8.80
2019-03-06T10:24:24.243Z,9.00
2019-03-06T10:34:28.362Z,9.10
2019-03-06T10:44:33.114Z,9.50
2019-03-06T10:54:44.291Z,9.60
2019-03-06T11:04:47.380Z,9.80
2019-03-06T11:14:51.248Z,10.10
2019-03-06T11:24:55.263Z,10.40
2019-03-06T11:34:59.311Z,10.60
2019-03-06T11:45:03.382Z,10.70
2019-03-06T11:55:07.681Z,10.90
2019-03-06T12:05:12.178Z,10.90
2019-03-06T12:15:16.826Z,11.20
2019-03-06T12:25:21.335Z,11.40
2019-03-06T12:35:25.519Z,11.30
2019-03-06T12:45:30.908Z,11.20
2019-03-06T12:55:35.102Z,11.10
2019-03-06T13:05:39.133Z,11.10
2019-03-06T13:15:43.132Z,11.20
2019-03-06T13:25:47.454Z,11.20
2019-03-06T13:35:51.826Z,11.30
2019-03-06T13:45:56.056Z,11.40
2019-03-06T13:56:00.692Z,11.30
2019-03-06T14:06:04.950Z,11.50
2019-03-06T14:16:09.147Z,11.50
2019-03-06T14:26:13.278Z,11.60
2019-03-06T14:36:17.199Z,11.90
2019-03-06T14:46:22.890Z,11.90
2019-03-06T14:56:26.925Z,12.70
2019-03-06T15:06:31.495Z,12.20
2019-03-06T15:16:35.837Z,12.10
2019-03-06T15:26:40.051Z,12.00
2019-03-06T15:36:44.555Z,12.00
2019-03-06T15:46:49.394Z,11.90
2019-03-06T15:56:53.374Z,11.70
2019-03-06T16:06:57.870Z,11.50
2019-03-06T16:17:01.884Z,11.30
2019-03-06T16:27:06.445Z,11.30
2019-03-06T16:37:11.034Z,11.20
2019-03-06T16:47:15.771Z,11.00
2019-03-06T16:57:19.682Z,10.80
2019-03-06T17:07:24.754Z,10.80
2019-03-06T17:17:28.657Z,10.80
2019-03-06T17:27:33.339Z,10.40
2019-03-06T17:37:37.399Z,10.10
2019-03-06T17:47:41.356Z,10.00
2019-03-06T17:57:45.611Z,9.90
2019-03-06T18:07:50.177Z,9.90
2019-03-06T18:17:54.011Z,9.90
2019-03-06T18:27:58.147Z,9.90
2019-03-06T18:38:02.951Z,9.80
2019-03-06T18:48:07.272Z,9.70
2019-03-06T18:58:13.962Z,9.70
2019-03-06T19:08:17.842Z,9.70
2019-03-06T19:18:22.070Z,9.70
2019-03-06T19:28:26.111Z,9.80
2019-03-06T19:38:30.250Z,9.80
2019-03-06T19:48:34.355Z,9.90
2019-03-06T19:58:38.535Z,9.90
2019-03-06T20:08:59.948Z,10.80
2019-03-06T20:19:04.314Z,10.20
2019-03-06T20:29:08.334Z,10.10
2019-03-06T20:39:12.770Z,10.10
2019-03-06T20:49:16.546Z,10.10
2019-03-06T20:59:20.904Z,10.20
2019-03-06T21:09:25.255Z,10.20
2019-03-06T21:19:29.350Z,10.20
2019-03-06T21:29:33.486Z,10.30
2019-03-06T21:39:37.907Z,10.40
2019-03-06T21:49:41.815Z,10.40
2019-03-06T21:59:46.684Z,10.40
2019-03-06T22:09:51.142Z,10.50
2019-03-06T22:19:55.308Z,10.50
2019-03-06T22:30:00.126Z,10.50
2019-03-06T22:40:05.263Z,10.50
2019-03-06T22:50:11.629Z,10.60
2019-03-06T23:00:43.342Z,10.60
2019-03-06T23:10:47.370Z,10.80
2019-03-06T23:20:51.962Z,10.80
2019-03-06T23:30:56.287Z,11.00
2019-03-06T23:41:00.498Z,11.00
2019-03-06T23:51:09.846Z,11.00
